createdAt,value
2023-05-04T00:02:38.986Z,1.30
2023-05-04T00:05:41.899Z,1.33
2023-05-04T00:08:45.029Z,1.20
2023-05-04T00:11:48.515Z,1.58
2023-05-04T00:14:51.538Z,1.30
2023-05-04T00:17:54.877Z,1.58
2023-05-04T00:20:58.327Z,1.40
2023-05-04T00:24:02.644Z,1.35
2023-05-04T00:27:06.648Z,1.42
2023-05-04T00:30:10.203Z,1.40
2023-05-04T00:33:14.030Z,1.52
2023-05-04T00:36:16.639Z,1.30
2023-05-04T00:39:19.511Z,1.65
2023-05-04T00:42:22.661Z,1.40
2023-05-04T00:45:25.732Z,1.52
2023-05-04T00:48:28.041Z,1.50
2023-05-04T00:51:31.108Z,1.40
2023-05-04T00:54:33.645Z,1.73
2023-05-04T00:57:36.008Z,1.40
2023-05-04T01:00:38.479Z,1.40
2023-05-04T01:03:40.858Z,1.50
2023-05-04T01:06:43.323Z,1.35
2023-05-04T01:09:45.641Z,1.48
2023-05-04T01:12:48.086Z,1.40
2023-05-04T01:15:50.452Z,1.40
2023-05-04T01:18:53.481Z,1.30
2023-05-04T01:21:55.916Z,1.35
2023-05-04T01:24:59.215Z,1.10
2023-05-04T01:28:02.395Z,1.13
2023-05-04T01:31:05.546Z,1.20
2023-05-04T01:34:09.478Z,1.10
2023-05-04T01:37:11.817Z,1.13
2023-05-04T01:40:14.218Z,1.13
2023-05-04T01:43:16.893Z,1.20
2023-05-04T01:46:18.993Z,1.25
2023-05-04T01:49:22.292Z,1.27
2023-05-04T01:52:25.298Z,1.23
2023-05-04T01:55:28.470Z,1.33
2023-05-04T01:58:31.673Z,1.30
2023-05-04T02:01:34.595Z,1.38
2023-05-04T02:04:38.932Z,1.40
2023-05-04T02:07:41.995Z,1.27
2023-05-04T02:10:44.593Z,1.40
2023-05-04T02:13:47.506Z,1.10
2023-05-04T02:16:50.463Z,1.00
2023-05-04T02:19:53.158Z,1.10
2023-05-04T02:22:56.285Z,0.90
2023-05-04T02:26:01.441Z,0.75
2023-05-04T02:29:05.019Z,1.02
2023-05-04T02:32:07.950Z,0.90
2023-05-04T02:35:10.736Z,1.00
2023-05-04T02:38:14.174Z,0.90
2023-05-04T02:41:17.039Z,0.98
2023-05-04T02:44:20.878Z,1.13
2023-05-04T02:47:23.907Z,1.15
2023-05-04T02:50:26.263Z,1.10
2023-05-04T02:53:28.727Z,1.50
2023-05-04T02:56:31.763Z,1.20
2023-05-04T02:59:35.126Z,1.25
2023-05-04T03:02:38.429Z,1.00
2023-05-04T03:05:41.207Z,1.25
2023-05-04T03:08:46.104Z,0.90
2023-05-04T03:11:48.403Z,1.00
2023-05-04T03:14:50.649Z,1.10
2023-05-04T03:17:53.055Z,0.90
2023-05-04T03:20:56.712Z,1.00
2023-05-04T03:23:59.244Z,1.10
2023-05-04T03:27:02.964Z,1.00
2023-05-04T03:30:06.113Z,1.30
2023-05-04T03:33:10.871Z,1.20
2023-05-04T03:36:13.211Z,1.25
2023-05-04T03:39:17.162Z,1.20
2023-05-04T03:42:19.947Z,1.30
2023-05-04T03:45:22.589Z,1.40
2023-05-04T03:48:26.353Z,1.27
2023-05-04T03:51:29.769Z,1.40
2023-05-04T03:54:32.419Z,2.13
2023-05-04T03:57:34.832Z,2.90
2023-05-04T04:00:37.633Z,5.00
2023-05-04T04:03:48.258Z,5.70
2023-05-04T04:06:53.284Z,5.70
2023-05-04T04:09:56.343Z,5.50
2023-05-04T04:13:00.608Z,5.47
2023-05-04T04:16:03.662Z,6.63
2023-05-04T04:19:06.653Z,6.28
2023-05-04T04:22:10.100Z,5.88
2023-05-04T04:25:12.622Z,5.10
2023-05-04T04:28:15.929Z,4.45
2023-05-04T04:31:18.755Z,4.07
2023-05-04T04:34:22.832Z,3.75
2023-05-04T04:37:25.602Z,3.58
2023-05-04T04:40:28.170Z,3.40
2023-05-04T04:43:30.746Z,3.10
2023-05-04T04:46:34.214Z,2.83
2023-05-04T04:49:38.077Z,2.72
2023-05-04T04:52:41.119Z,2.90
2023-05-04T04:55:43.730Z,2.75
2023-05-04T04:58:47.004Z,2.67
2023-05-04T05:01:50.142Z,2.28
2023-05-04T05:04:52.805Z,2.25
2023-05-04T05:07:55.728Z,2.28
2023-05-04T05:10:58.577Z,2.17
2023-05-04T05:14:01.622Z,2.20
2023-05-04T05:17:04.922Z,1.88
2023-05-04T05:20:08.546Z,2.00
2023-05-04T05:23:12.479Z,2.60
2023-05-04T05:26:16.057Z,2.05
2023-05-04T05:29:18.747Z,2.00
2023-05-04T05:32:21.714Z,2.17
2023-05-04T05:35:24.429Z,2.05
2023-05-04T05:38:27.363Z,2.08
2023-05-04T05:41:30.529Z,1.70
2023-05-04T05:44:34.191Z,1.48
2023-05-04T05:47:37.049Z,1.70
2023-05-04T05:50:40.647Z,1.35
2023-05-04T05:53:44.382Z,1.23
2023-05-04T05:56:47.476Z,1.67
2023-05-04T05:59:50.622Z,1.65
2023-05-04T06:02:53.836Z,1.60
2023-05-04T06:05:56.629Z,1.50
2023-05-04T06:09:00.276Z,1.40
2023-05-04T06:12:03.176Z,1.35
2023-05-04T06:15:07.158Z,1.40
2023-05-04T06:18:10.938Z,1.20
2023-05-04T06:21:14.435Z,1.40
2023-05-04T06:24:17.814Z,1.50
2023-05-04T06:27:22.191Z,1.33
2023-05-04T06:30:25.573Z,1.30
2023-05-04T06:33:28.642Z,1.40
2023-05-04T06:36:31.420Z,1.23
2023-05-04T06:39:34.217Z,1.40
2023-05-04T06:42:37.226Z,1.30
2023-05-04T06:45:40.420Z,1.10
2023-05-04T06:48:43.975Z,1.10
2023-05-04T06:51:47.462Z,1.02
2023-05-04T06:54:49.828Z,1.00
2023-05-04T06:57:52.069Z,1.05
2023-05-04T07:00:55.133Z,1.00
2023-05-04T07:03:58.666Z,1.10
2023-05-04T07:07:02.300Z,1.00
2023-05-04T07:10:05.570Z,0.93
2023-05-04T07:13:09.835Z,1.02
2023-05-04T07:16:12.713Z,1.20
2023-05-04T07:19:15.467Z,1.30
2023-05-04T07:22:18.769Z,1.20
2023-05-04T07:25:22.439Z,1.50
2023-05-04T07:28:25.900Z,1.52
2023-05-04T07:31:30.481Z,1.30
2023-05-04T07:34:45.229Z,1.30
2023-05-04T07:37:49.366Z,1.48
2023-05-04T07:40:51.975Z,1.05
2023-05-04T07:43:55.071Z,1.02
2023-05-04T07:46:57.811Z,1.20
2023-05-04T07:50:00.651Z,1.05
2023-05-04T07:53:02.890Z,1.00
2023-05-04T07:56:05.705Z,1.00
2023-05-04T07:59:08.918Z,0.90
2023-05-04T08:02:12.072Z,0.90
2023-05-04T08:05:15.083Z,0.90
2023-05-04T08:08:18.043Z,1.00
2023-05-04T08:11:21.137Z,1.13
2023-05-04T08:14:23.978Z,0.90
2023-05-04T08:17:27.050Z,1.00
2023-05-04T08:20:29.757Z,1.00
2023-05-04T08:23:32.497Z,0.80
2023-05-04T08:26:35.203Z,0.88
2023-05-04T08:29:38.240Z,1.00
2023-05-04T08:32:41.281Z,0.90
2023-05-04T08:35:43.524Z,0.80
2023-05-04T08:38:46.379Z,0.90
2023-05-04T08:41:48.712Z,0.80
2023-05-04T08:44:51.690Z,0.80
2023-05-04T08:47:55.006Z,0.90
2023-05-04T08:50:58.525Z,0.73
2023-05-04T08:54:01.723Z,0.70
2023-05-04T08:57:04.791Z,0.90
2023-05-04T09:00:07.408Z,0.70
2023-05-04T09:03:10.452Z,0.90
2023-05-04T09:06:12.823Z,0.80
2023-05-04T09:09:15.676Z,1.50
2023-05-04T09:12:18.206Z,1.40
2023-05-04T09:15:21.040Z,1.20
2023-05-04T09:18:23.905Z,0.90
2023-05-04T09:21:26.190Z,1.00
2023-05-04T09:24:28.944Z,1.00
2023-05-04T09:27:31.643Z,0.80
2023-05-04T09:30:34.334Z,0.80
2023-05-04T09:33:37.121Z,0.93
2023-05-04T09:36:39.885Z,0.90
2023-05-04T09:39:42.441Z,0.70
2023-05-04T09:42:45.521Z,0.88
2023-05-04T09:45:48.754Z,0.68
2023-05-04T09:48:52.360Z,0.60
2023-05-04T09:51:56.471Z,0.93
2023-05-04T09:54:59.960Z,3.30
2023-05-04T09:58:02.724Z,2.30
2023-05-04T10:01:05.532Z,1.65
2023-05-04T10:04:08.186Z,1.30
2023-05-04T10:07:10.401Z,1.13
2023-05-04T10:10:13.063Z,1.10
2023-05-04T10:13:15.314Z,1.08
2023-05-04T10:16:18.092Z,1.00
2023-05-04T10:19:20.537Z,1.10
2023-05-04T10:22:23.321Z,0.90
2023-05-04T10:25:25.898Z,1.00
2023-05-04T10:28:28.704Z,0.90
2023-05-04T10:31:31.477Z,0.90
2023-05-04T10:34:34.126Z,0.82
2023-05-04T10:37:36.934Z,0.90
2023-05-04T10:40:39.764Z,0.80
2023-05-04T10:43:43.057Z,0.80
2023-05-04T10:46:47.064Z,1.00
2023-05-04T10:49:50.612Z,0.80
2023-05-04T10:52:54.491Z,1.90
2023-05-04T10:55:58.890Z,2.30
2023-05-04T10:59:02.650Z,2.35
2023-05-04T11:02:06.124Z,2.70
2023-05-04T11:05:09.055Z,2.50
2023-05-04T11:08:12.672Z,2.28
2023-05-04T11:11:15.399Z,2.35
2023-05-04T11:14:17.717Z,2.33
2023-05-04T11:17:28.287Z,2.60
2023-05-04T11:20:30.698Z,2.53
2023-05-04T11:23:33.476Z,3.00
2023-05-04T11:26:36.710Z,2.88
2023-05-04T11:29:40.276Z,2.95
2023-05-04T11:32:42.759Z,3.40
2023-05-04T11:35:46.002Z,3.10
2023-05-04T11:38:48.557Z,3.35
2023-05-04T11:41:50.928Z,3.38
2023-05-04T11:44:53.915Z,3.10
2023-05-04T11:47:57.044Z,3.40
2023-05-04T11:51:00.044Z,3.35
2023-05-04T11:54:02.306Z,3.80
2023-05-04T11:57:05.091Z,3.42
2023-05-04T12:00:08.176Z,3.40
2023-05-04T12:03:11.089Z,3.40
2023-05-04T12:06:14.071Z,3.80
2023-05-04T12:09:16.476Z,3.60
2023-05-04T12:12:19.234Z,3.38
2023-05-04T12:15:21.930Z,3.08
2023-05-04T12:18:24.934Z,3.53
2023-05-04T12:21:28.268Z,3.35
2023-05-04T12:24:31.177Z,3.05
2023-05-04T12:27:34.152Z,3.22
2023-05-04T12:30:36.939Z,3.92
2023-05-04T12:33:39.777Z,3.70
2023-05-04T12:36:42.709Z,3.60
2023-05-04T12:39:45.575Z,3.85
2023-05-04T12:42:48.910Z,3.75
2023-05-04T12:45:52.200Z,3.90
2023-05-04T12:48:54.633Z,3.80
2023-05-04T12:51:57.301Z,3.70
2023-05-04T12:55:00.233Z,3.53
2023-05-04T12:58:03.136Z,4.03
2023-05-04T13:01:06.115Z,3.03
2023-05-04T13:04:08.804Z,4.38
2023-05-04T13:07:11.439Z,3.80
2023-05-04T13:10:14.065Z,3.92
2023-05-04T13:13:16.675Z,3.72
2023-05-04T13:16:19.533Z,3.42
2023-05-04T13:19:22.251Z,4.30
2023-05-04T13:22:25.078Z,5.05
2023-05-04T13:25:27.604Z,4.00
2023-05-04T13:28:30.105Z,4.63
2023-05-04T13:31:32.391Z,4.20
2023-05-04T13:34:35.792Z,3.92
2023-05-04T13:37:39.772Z,4.43
2023-05-04T13:40:43.683Z,5.47
2023-05-04T13:43:46.708Z,4.60
2023-05-04T13:46:49.545Z,4.75
2023-05-04T13:49:53.362Z,4.30
2023-05-04T13:52:55.418Z,4.57
2023-05-04T13:55:58.197Z,4.25
2023-05-04T13:59:00.949Z,4.30
2023-05-04T14:02:03.469Z,5.30
2023-05-04T14:05:06.043Z,4.82
2023-05-04T14:08:08.887Z,4.60
2023-05-04T14:11:11.608Z,5.10
2023-05-04T14:14:14.340Z,4.28
2023-05-04T14:17:17.173Z,4.10
2023-05-04T14:20:20.378Z,3.40
2023-05-04T14:23:24.014Z,4.57
2023-05-04T14:26:26.981Z,4.40
2023-05-04T14:29:29.869Z,4.10
2023-05-04T14:32:32.287Z,5.38
2023-05-04T14:35:34.596Z,4.28
2023-05-04T14:38:37.466Z,5.80
2023-05-04T14:41:41.114Z,5.45
2023-05-04T14:44:44.244Z,4.63
2023-05-04T14:47:47.371Z,4.82
2023-05-04T14:50:50.158Z,5.90
2023-05-04T14:53:52.705Z,5.90
2023-05-04T14:56:55.547Z,6.10
2023-05-04T14:59:58.183Z,6.10
2023-05-04T15:03:00.909Z,5.50
2023-05-04T15:06:03.629Z,7.28
2023-05-04T15:09:05.864Z,7.32
2023-05-04T15:12:08.552Z,7.15
2023-05-04T15:15:12.055Z,6.68
2023-05-04T15:18:14.496Z,6.97
2023-05-04T15:21:17.590Z,5.97
2023-05-04T15:24:20.352Z,6.90
2023-05-04T15:27:22.789Z,6.60
2023-05-04T15:30:26.141Z,5.45
2023-05-04T15:33:29.703Z,5.35
2023-05-04T15:36:32.571Z,6.05
2023-05-04T15:39:36.085Z,5.70
2023-05-04T15:42:39.845Z,6.95
2023-05-04T15:45:42.384Z,6.18
2023-05-04T15:48:45.224Z,5.30
2023-05-04T15:51:49.099Z,6.32
2023-05-04T15:54:52.570Z,5.90
2023-05-04T15:57:56.436Z,5.15
2023-05-04T16:00:59.664Z,6.47
2023-05-04T16:04:03.137Z,5.82
2023-05-04T16:07:06.679Z,6.07
2023-05-04T16:10:10.233Z,6.10
2023-05-04T16:13:14.138Z,6.13
2023-05-04T16:16:17.334Z,6.43
2023-05-04T16:19:20.139Z,6.00
2023-05-04T16:22:24.334Z,5.78
2023-05-04T16:25:28.148Z,5.55
2023-05-04T16:28:30.634Z,5.82
2023-05-04T16:31:33.441Z,6.68
2023-05-04T16:34:36.314Z,6.40
2023-05-04T16:37:39.380Z,5.00
2023-05-04T16:40:42.425Z,5.90
2023-05-04T16:43:44.663Z,5.72
2023-05-04T16:46:47.052Z,6.43
2023-05-04T16:49:50.163Z,6.18
2023-05-04T16:52:53.100Z,6.03
2023-05-04T16:55:56.605Z,6.60
2023-05-04T16:59:00.468Z,6.38
2023-05-04T17:02:03.663Z,6.28
2023-05-04T17:05:06.436Z,5.80
2023-05-04T17:08:09.045Z,5.65
2023-05-04T17:11:12.341Z,6.00
2023-05-04T17:14:15.642Z,5.35
2023-05-04T17:17:17.995Z,6.13
2023-05-04T17:20:20.687Z,5.53
2023-05-04T17:23:23.436Z,5.07
2023-05-04T17:26:26.299Z,5.03
2023-05-04T17:29:29.223Z,4.68
2023-05-04T17:32:32.265Z,4.32
2023-05-04T17:35:35.239Z,4.50
2023-05-04T17:38:37.945Z,5.00
2023-05-04T17:41:40.505Z,4.30
2023-05-04T17:44:43.503Z,4.88
2023-05-04T17:47:47.162Z,4.50
2023-05-04T17:50:49.498Z,4.82
2023-05-04T17:53:51.521Z,4.20
2023-05-04T17:56:53.953Z,4.40
2023-05-04T17:59:56.718Z,4.72
2023-05-04T18:02:59.375Z,4.60
2023-05-04T18:06:02.589Z,4.22
2023-05-04T18:09:05.861Z,4.22
2023-05-04T18:12:09.179Z,3.85
2023-05-04T18:15:12.101Z,3.60
2023-05-04T18:18:15.183Z,3.63
2023-05-04T18:21:17.919Z,3.40
2023-05-04T18:24:20.914Z,2.97
2023-05-04T18:27:23.725Z,3.67
2023-05-04T18:30:26.165Z,2.10
2023-05-04T18:33:28.585Z,1.90
2023-05-04T18:36:31.577Z,1.98
2023-05-04T18:39:34.305Z,1.92
2023-05-04T18:42:36.841Z,1.65
2023-05-04T18:45:39.776Z,1.60
2023-05-04T18:48:42.930Z,1.60
2023-05-04T18:51:46.580Z,1.38
2023-05-04T18:54:49.431Z,1.40
2023-05-04T18:57:52.920Z,1.17
2023-05-04T19:00:56.830Z,1.10
2023-05-04T19:03:59.592Z,1.20
2023-05-04T19:07:02.484Z,1.15
2023-05-04T19:10:05.503Z,1.10
2023-05-04T19:13:08.536Z,1.10
2023-05-04T19:16:11.756Z,1.13
2023-05-04T19:19:15.344Z,1.20
2023-05-04T19:22:18.371Z,1.20
2023-05-04T19:25:33.727Z,1.10
2023-05-04T19:28:37.141Z,1.00
2023-05-04T19:31:39.859Z,1.10
2023-05-04T19:34:42.232Z,1.00
2023-05-04T19:37:44.967Z,0.90
2023-05-04T19:40:47.683Z,1.13
2023-05-04T19:43:50.827Z,0.90
2023-05-04T19:46:53.900Z,1.10
2023-05-04T19:49:56.689Z,1.00
2023-05-04T19:52:59.042Z,1.10
2023-05-04T19:56:02.188Z,0.90
2023-05-04T19:59:05.800Z,1.20
2023-05-04T20:02:08.105Z,1.08
2023-05-04T20:05:10.709Z,1.00
2023-05-04T20:08:13.721Z,1.10
2023-05-04T20:11:16.585Z,0.95
2023-05-04T20:14:19.371Z,0.80
2023-05-04T20:17:22.211Z,0.90
2023-05-04T20:20:25.029Z,0.95
2023-05-04T20:23:27.335Z,1.13
2023-05-04T20:26:30.194Z,1.00
2023-05-04T20:29:33.590Z,1.00
2023-05-04T20:32:37.780Z,0.93
2023-05-04T20:35:40.875Z,1.08
2023-05-04T20:38:43.879Z,0.93
2023-05-04T20:41:47.118Z,1.00
2023-05-04T20:44:50.483Z,1.10
2023-05-04T20:47:53.473Z,0.90
2023-05-04T20:51:06.537Z,1.00
2023-05-04T20:54:20.374Z,0.80
2023-05-04T20:57:23.196Z,0.90
2023-05-04T21:00:26.258Z,1.00
2023-05-04T21:03:29.398Z,0.82
2023-05-04T21:06:33.361Z,0.88
2023-05-04T21:09:37.851Z,1.10
2023-05-04T21:12:40.991Z,0.85
2023-05-04T21:15:44.244Z,1.02
2023-05-04T21:18:47.729Z,1.00
2023-05-04T21:21:50.123Z,1.00
2023-05-04T21:24:53.064Z,0.80
2023-05-04T21:27:55.712Z,1.10
2023-05-04T21:30:58.400Z,1.17
2023-05-04T21:34:01.554Z,1.00
2023-05-04T21:37:05.422Z,1.02
2023-05-04T21:40:09.089Z,0.95
2023-05-04T21:43:12.775Z,0.95
2023-05-04T21:46:15.570Z,1.05
2023-05-04T21:49:18.359Z,1.10
2023-05-04T21:52:22.108Z,1.02
2023-05-04T21:55:25.143Z,1.00
2023-05-04T21:58:28.082Z,1.00
2023-05-04T22:01:31.189Z,1.15
2023-05-04T22:04:35.204Z,0.95
2023-05-04T22:07:38.669Z,1.20
2023-05-04T22:10:41.457Z,0.98
2023-05-04T22:13:44.158Z,0.95
2023-05-04T22:16:46.185Z,1.00
2023-05-04T22:19:49.620Z,1.10
2023-05-04T22:22:53.748Z,1.08
2023-05-04T22:25:57.367Z,1.00
2023-05-04T22:28:59.946Z,1.20
2023-05-04T22:32:02.207Z,1.25
2023-05-04T22:35:05.021Z,1.30
2023-05-04T22:38:07.589Z,1.20
2023-05-04T22:41:10.448Z,1.20
2023-05-04T22:44:13.064Z,1.02
2023-05-04T22:47:16.106Z,1.33
2023-05-04T22:50:18.814Z,1.00
2023-05-04T22:53:22.822Z,1.00
2023-05-04T22:56:25.418Z,1.23
2023-05-04T22:59:28.418Z,1.23
2023-05-04T23:02:30.733Z,1.10
2023-05-04T23:05:33.323Z,1.02
2023-05-04T23:08:36.744Z,1.20
2023-05-04T23:11:40.364Z,1.10
2023-05-04T23:14:43.733Z,1.23
2023-05-04T23:17:47.699Z,1.30
2023-05-04T23:20:51.603Z,1.10
2023-05-04T23:23:54.565Z,1.33
2023-05-04T23:26:57.553Z,1.10
2023-05-04T23:30:00.684Z,1.27
2023-05-04T23:33:03.230Z,1.15
2023-05-04T23:36:05.922Z,1.10
2023-05-04T23:39:08.628Z,1.00
2023-05-04T23:42:11.598Z,1.08
2023-05-04T23:45:13.819Z,1.10
2023-05-04T23:48:16.773Z,1.20
2023-05-04T23:51:19.703Z,1.10
2023-05-04T23:54:22.460Z,1.08
2023-05-04T23:57:25.057Z,1.20
